Portada
METAR-TAF:

METAR-TAF

Aeroports :

Santander, Espanya

latitud: 43-26N, longitud: 003-49W, altitud: 6 m

Observació

L'informe es va fer fa 24 minuts, a les 00:00 UTC
Vent 6 kt del Sud-Oest
Temperatura 11°C
Humitat 87%
Pressió 1016 hPa
Visibilitat 10 km o més
Núvols disperses a una alçada de 2100 ft
Núvols disperses a una alçada de 2900 ft

METAR: LEXJ 200000Z AUTO 22006KT 9999 SCT021 SCT029 11/09 Q1016

Hora: 02:24 (00:24 UTC)

Pronòstic

L'informe es va fer fa 4 hores i 24 minuts, a les 20:00 UTC
Pronòstic vàlid del 19 a les 21 UTC al 20 a les 21 UTC
Vent 7 kt del Sud-Oest
Visibilitat 10 km o més
Núvols disperses a una alçada de 2500 ft
Probabilitat 30% :
Temporalment
l' 20 a les 04 UTC al 20 a les 06 UTC
Visibilitat: 3000 m
Cel ennuvolat a una alçada de 1000 ft
boirina
Probabilitat 40%
l' 20 a les 12 UTC al 20 a les 18 UTC
Vent 10 kt del Nord-Est

TAF: LEXJ 192000Z 1921/2021 22007KT 9999 SCT025 TX16/2014Z TN08/2005Z PROB30 TEMPO 2004/2006 3000 BR BKN010 PROB40 2012/2018 04010KT

Observacions i pronòstics meteorològics de més de 4000 aeroports (METAR i TAF).

Les estacions disponibles són els punts grocs i vermells al mapa.

Posi el ratolí al punt desitjat per veure el nom de l'estació.

Feu clic per veure les observacions i els pronòstics meteorològics.

Per canviar el mapa: feu clic els botons verds amb una creu de color negre per apropar; al botó verd amb un guió per allunyar la imatge; o en les fletxes verdes per a mapes adjacents.


METAR-TAF: